Time;durP1;ratioP1;P1;durP2;ratioP2;P2;SDS_P1;SDS_P2;PMS_P1;PMS_P2;Temp;Humidity;BMP_temperature;BMP_pressure;BME280_temperature;BME280_humidity;BME280_pressure;Samples;Min_cycle;Max_cycle;Signal;HPM_P1;HPM_P2
2021/08/05 00:01:54;;;;;;;6.30;3.25;;;19.00;86.80;;;;;;5030239;28;20512;-70
2021/08/05 00:04:39;;;;;;;4.50;2.67;;;19.00;86.70;;;;;;5030841;28;20069;-71
2021/08/05 00:07:23;;;;;;;3.72;2.72;;;19.00;86.70;;;;;;5030852;28;20048;-71
2021/08/05 00:10:07;;;;;;;5.68;2.95;;;18.90;86.90;;;;;;5015319;28;20082;-71
2021/08/05 00:12:52;;;;;;;4.18;2.78;;;18.90;86.20;;;;;;5030806;28;20040;-71
2021/08/05 00:15:36;;;;;;;3.70;3.00;;;18.90;86.30;;;;;;5032018;28;20044;-71
2021/08/05 00:18:20;;;;;;;4.23;2.87;;;18.80;86.20;;;;;;5029956;28;20047;-71
2021/08/05 00:21:04;;;;;;;4.45;2.70;;;18.80;86.10;;;;;;5033409;28;20152;-70
2021/08/05 00:23:48;;;;;;;6.13;2.70;;;18.80;86.20;;;;;;5022980;28;20144;-72
2021/08/05 00:26:33;;;;;;;4.20;2.50;;;18.80;86.30;;;;;;5030674;28;20036;-71
2021/08/05 00:29:17;;;;;;;6.68;3.08;;;18.70;86.30;;;;;;5029156;28;20288;-71
2021/08/05 00:32:01;;;;;;;4.60;2.63;;;18.70;86.20;;;;;;5032171;28;20025;-71
2021/08/05 00:34:45;;;;;;;5.17;3.13;;;18.70;86.20;;;;;;5030662;28;20035;-70
2021/08/05 00:37:28;;;;;;;4.53;2.75;;;18.70;86.20;;;;;;5030344;28;20512;-70
2021/08/05 00:40:13;;;;;;;5.55;2.83;;;18.70;86.30;;;;;;5031509;28;20091;-70
2021/08/05 00:42:57;;;;;;;4.35;2.55;;;18.60;86.10;;;;;;5029432;28;20044;-70
2021/08/05 00:45:41;;;;;;;5.13;2.90;;;18.60;86.30;;;;;;5031877;28;20040;-71
2021/08/05 00:48:25;;;;;;;3.57;2.53;;;18.60;86.30;;;;;;5027738;28;20100;-71
2021/08/05 00:51:09;;;;;;;3.75;2.63;;;18.60;86.40;;;;;;5031126;28;20294;-70
2021/08/05 00:53:53;;;;;;;3.83;2.70;;;18.60;86.40;;;;;;5003586;28;20057;-71
2021/08/05 00:56:37;;;;;;;4.32;2.60;;;18.50;86.40;;;;;;5030952;28;20357;-70
2021/08/05 00:59:21;;;;;;;4.20;2.90;;;18.60;86.50;;;;;;5029387;28;20041;-70
2021/08/05 01:02:20;;;;;;;3.97;2.67;;;18.60;86.60;;;;;;5031129;28;20044;-70
2021/08/05 01:05:05;;;;;;;3.80;2.42;;;18.50;86.70;;;;;;5026636;28;20113;-70
2021/08/05 01:07:59;;;;;;;4.32;2.80;;;18.50;86.70;;;;;;5029908;28;20051;-69
2021/08/05 01:10:51;;;;;;;5.70;3.67;;;18.50;87.20;;;;;;5011433;28;20053;-70
2021/08/05 01:13:50;;;;;;;3.83;2.47;;;18.50;86.80;;;;;;5006159;28;20113;-71
2021/08/05 01:16:37;;;;;;;4.95;2.97;;;18.50;86.80;;;;;;5030930;28;20032;-71
2021/08/05 01:19:30;;;;;;;5.07;2.65;;;18.50;86.90;;;;;;5028410;28;20437;-71
2021/08/05 01:22:29;;;;;;;4.50;2.88;;;18.50;86.90;;;;;;5042843;28;20040;-71
2021/08/05 01:25:40;;;;;;;5.15;2.47;;;18.50;86.90;;;;;;4996836;28;20037;-70
2021/08/05 01:28:26;;;;;;;3.30;2.25;;;18.50;86.90;;;;;;5029277;28;20037;-70
2021/08/05 01:31:14;;;;;;;4.70;2.55;;;18.40;87.00;;;;;;5029785;28;20030;-70
2021/08/05 01:34:00;;;;;;;4.35;2.53;;;18.40;87.00;;;;;;5032435;28;20023;-69
2021/08/05 01:36:49;;;;;;;4.43;2.67;;;18.40;87.00;;;;;;5032853;28;20060;-70
2021/08/05 01:39:35;;;;;;;5.45;3.00;;;18.30;87.00;;;;;;5033367;28;20048;-70
2021/08/05 01:42:22;;;;;;;3.13;1.92;;;18.30;87.10;;;;;;5031457;28;20108;-70
2021/08/05 01:45:09;;;;;;;4.38;2.80;;;18.40;87.20;;;;;;5019517;28;20033;-70
2021/08/05 01:47:57;;;;;;;4.40;2.58;;;18.40;87.20;;;;;;5032498;28;20049;-70
2021/08/05 01:50:43;;;;;;;4.20;2.47;;;18.40;87.30;;;;;;5030251;28;20460;-70
2021/08/05 01:53:30;;;;;;;4.03;2.83;;;18.30;87.30;;;;;;5033349;28;20026;-70
2021/08/05 01:56:22;;;;;;;5.53;2.05;;;18.30;87.40;;;;;;5034837;28;20486;-70
2021/08/05 01:59:08;;;;;;;4.15;2.53;;;18.30;87.60;;;;;;5020773;28;20162;-70
2021/08/05 02:01:54;;;;;;;5.43;2.60;;;18.30;87.60;;;;;;5016531;28;20034;-70
2021/08/05 02:05:05;;;;;;;4.07;2.30;;;18.30;87.80;;;;;;5013439;28;20026;-70
2021/08/05 02:08:05;;;;;;;3.13;2.13;;;18.30;87.80;;;;;;5024315;28;20035;-71
2021/08/05 02:10:56;;;;;;;5.22;2.70;;;18.30;87.90;;;;;;5028278;28;20030;-72
2021/08/05 02:13:43;;;;;;;5.93;2.70;;;18.30;88.10;;;;;;5012936;28;20026;-71
2021/08/05 02:16:30;;;;;;;4.15;2.42;;;18.30;88.10;;;;;;5032991;28;20474;-71
2021/08/05 02:19:16;;;;;;;5.50;2.60;;;18.30;88.20;;;;;;5021310;28;20444;-71
2021/08/05 02:22:03;;;;;;;4.03;2.42;;;18.30;88.30;;;;;;5031376;28;20026;-70
2021/08/05 02:24:49;;;;;;;4.28;2.70;;;18.20;88.40;;;;;;5031705;28;20611;-70
2021/08/05 02:27:36;;;;;;;3.30;2.20;;;18.20;88.50;;;;;;5031915;28;20145;-71
2021/08/05 02:30:21;;;;;;;5.15;2.50;;;18.20;88.60;;;;;;5033756;28;20109;-71
2021/08/05 02:33:09;;;;;;;3.65;2.30;;;18.20;88.80;;;;;;5030788;28;20030;-71
2021/08/05 02:35:55;;;;;;;4.00;2.50;;;18.10;89.00;;;;;;5034107;28;20029;-71
2021/08/05 02:38:41;;;;;;;4.78;2.38;;;18.10;89.20;;;;;;5031539;28;20064;-72
2021/08/05 02:41:27;;;;;;;4.82;2.20;;;18.10;89.40;;;;;;5033876;28;20072;-72
2021/08/05 02:44:15;;;;;;;4.35;2.70;;;18.00;89.50;;;;;;5012968;28;20482;-70
2021/08/05 02:47:01;;;;;;;4.93;2.97;;;18.00;89.60;;;;;;5015351;28;20030;-71
2021/08/05 02:49:50;;;;;;;3.50;2.50;;;18.00;89.60;;;;;;5033600;28;20108;-71
2021/08/05 02:52:38;;;;;;;3.97;2.63;;;18.00;89.70;;;;;;5029904;28;20026;-71
2021/08/05 02:55:25;;;;;;;3.88;2.58;;;17.90;89.70;;;;;;5028223;28;20061;-71
2021/08/05 02:58:12;;;;;;;3.40;2.25;;;18.00;89.80;;;;;;5022779;28;20044;-71
2021/08/05 03:00:57;;;;;;;3.75;2.70;;;17.90;90.00;;;;;;5030707;28;20044;-71
2021/08/05 03:03:43;;;;;;;3.33;2.35;;;17.90;90.00;;;;;;5031386;28;20033;-71
2021/08/05 03:06:31;;;;;;;3.85;2.47;;;17.90;90.00;;;;;;5017670;28;20029;-71
2021/08/05 03:09:17;;;;;;;4.05;2.50;;;17.90;90.00;;;;;;5030636;28;20033;-71
2021/08/05 03:12:03;;;;;;;3.78;2.47;;;17.90;90.10;;;;;;5031657;28;20025;-71
2021/08/05 03:14:49;;;;;;;4.70;2.80;;;17.90;90.10;;;;;;5013702;28;20030;-69
2021/08/05 03:17:35;;;;;;;4.13;2.70;;;17.90;90.10;;;;;;5017837;28;20064;-71
2021/08/05 03:20:20;;;;;;;4.70;2.60;;;17.80;90.20;;;;;;5031302;28;20048;-71
2021/08/05 03:22:57;;;;;;;3.55;2.47;;;17.80;90.20;;;;;;5028932;28;20029;-71
2021/08/05 03:25:41;;;;;;;4.47;3.10;;;17.80;90.30;;;;;;5030219;28;20044;-71
2021/08/05 03:28:25;;;;;;;4.20;2.40;;;17.80;90.30;;;;;;5030873;28;20488;-71
2021/08/05 03:31:09;;;;;;;7.87;2.60;;;17.80;90.30;;;;;;5029724;28;20116;-71
2021/08/05 03:33:53;;;;;;;7.15;2.50;;;17.80;90.30;;;;;;5031130;28;20041;-71
2021/08/05 03:36:36;;;;;;;4.13;2.28;;;17.80;90.30;;;;;;5033176;28;20060;-70
2021/08/05 03:39:21;;;;;;;4.77;3.00;;;17.80;90.40;;;;;;5032137;28;20035;-70
2021/08/05 03:42:05;;;;;;;4.15;2.40;;;17.80;90.40;;;;;;5015782;28;20287;-71
2021/08/05 03:44:50;;;;;;;4.17;2.60;;;17.80;90.40;;;;;;5034564;28;20119;-71
2021/08/05 03:47:34;;;;;;;5.28;2.47;;;17.80;90.50;;;;;;5035024;28;20150;-71
2021/08/05 03:50:18;;;;;;;5.18;2.83;;;17.80;90.50;;;;;;5029965;28;20057;-71
2021/08/05 03:53:02;;;;;;;3.20;2.30;;;17.70;90.40;;;;;;5034173;28;20064;-71
2021/08/05 03:55:46;;;;;;;5.38;2.83;;;17.80;90.50;;;;;;5044259;28;20044;-71
2021/08/05 03:58:31;;;;;;;5.18;2.80;;;17.70;90.50;;;;;;5044058;28;20036;-72
2021/08/05 04:01:15;;;;;;;4.10;3.03;;;17.80;90.50;;;;;;5042448;28;20136;-72
2021/08/05 04:03:58;;;;;;;4.55;2.60;;;17.80;90.60;;;;;;5026832;28;20116;-72
2021/08/05 04:06:43;;;;;;;6.27;2.63;;;17.80;90.60;;;;;;5029049;28;20176;-72
2021/08/05 04:09:27;;;;;;;5.65;2.85;;;17.80;90.50;;;;;;5031740;28;20040;-71
2021/08/05 04:12:10;;;;;;;4.72;2.60;;;17.80;90.60;;;;;;5011774;28;20028;-72
2021/08/05 04:14:54;;;;;;;7.77;3.43;;;17.80;90.60;;;;;;5018664;28;20080;-72
2021/08/05 04:17:40;;;;;;;5.43;2.88;;;17.90;90.60;;;;;;5045729;28;20036;-72
2021/08/05 04:20:24;;;;;;;4.70;2.67;;;17.90;90.60;;;;;;5029588;28;20099;-72
2021/08/05 04:23:08;;;;;;;4.38;2.60;;;17.90;90.60;;;;;;5030217;28;20036;-72
2021/08/05 04:25:52;;;;;;;4.70;2.90;;;17.90;90.60;;;;;;5031387;28;20444;-72
2021/08/05 04:28:35;;;;;;;5.72;2.88;;;17.90;90.60;;;;;;5029933;28;20045;-72
2021/08/05 04:31:19;;;;;;;6.77;3.27;;;17.90;90.60;;;;;;5031802;28;20095;-72
2021/08/05 04:34:03;;;;;;;3.60;2.40;;;17.90;90.60;;;;;;5015887;28;20156;-71
2021/08/05 04:36:47;;;;;;;4.28;2.72;;;17.90;90.60;;;;;;5030853;28;20029;-72
2021/08/05 04:39:32;;;;;;;6.35;2.40;;;18.00;90.70;;;;;;5030528;28;20505;-70
2021/08/05 04:42:16;;;;;;;4.32;2.75;;;18.10;90.70;;;;;;5030152;28;20029;-70
2021/08/05 04:45:00;;;;;;;5.97;2.97;;;18.10;90.70;;;;;;5012416;28;20091;-70
2021/08/05 04:47:54;;;;;;;5.50;3.40;;;18.10;90.60;;;;;;5015160;28;20076;-70
2021/08/05 04:50:41;;;;;;;5.72;3.17;;;18.20;90.60;;;;;;5030620;28;20437;-70
2021/08/05 04:53:25;;;;;;;4.13;3.20;;;18.20;90.60;;;;;;5015442;28;20152;-70
2021/08/05 04:56:09;;;;;;;7.00;3.70;;;18.20;90.70;;;;;;5016763;28;20053;-70
2021/08/05 04:58:53;;;;;;;4.40;2.83;;;18.20;90.70;;;;;;5025858;28;20425;-70
2021/08/05 05:01:37;;;;;;;4.47;2.97;;;18.30;90.60;;;;;;5031650;28;20052;-69
2021/08/05 05:04:21;;;;;;;5.80;3.23;;;18.30;90.60;;;;;;5028859;28;20044;-70
2021/08/05 05:07:05;;;;;;;7.28;3.72;;;18.30;90.50;;;;;;5026773;28;20287;-69
2021/08/05 05:09:49;;;;;;;5.33;3.70;;;18.30;90.70;;;;;;5030171;28;20526;-70
2021/08/05 05:12:34;;;;;;;4.70;3.30;;;18.30;90.50;;;;;;5024796;28;20280;-70
2021/08/05 05:15:19;;;;;;;5.10;3.70;;;18.40;90.50;;;;;;5029944;28;20048;-70
2021/08/05 05:18:04;;;;;;;7.90;3.60;;;18.40;90.50;;;;;;5021113;28;20171;-70
2021/08/05 05:20:50;;;;;;;5.85;3.60;;;18.40;90.60;;;;;;5027403;28;20408;-69
2021/08/05 05:23:34;;;;;;;;;;;18.40;90.60;;;;;;5028778;28;20076;-70
2021/08/05 05:26:18;;;;;;;6.32;4.00;;;18.50;90.50;;;;;;5031085;28;19954;-71
2021/08/05 05:29:04;;;;;;;5.25;3.53;;;18.50;90.60;;;;;;5013893;28;20076;-71
2021/08/05 05:31:50;;;;;;;6.05;3.80;;;18.60;90.60;;;;;;5029395;28;20026;-71
2021/08/05 05:34:36;;;;;;;5.47;3.70;;;18.60;90.60;;;;;;5021577;28;20057;-72
2021/08/05 05:37:23;;;;;;;8.20;4.22;;;18.70;90.60;;;;;;5022198;28;20105;-71
2021/08/05 05:40:09;;;;;;;6.18;4.20;;;18.70;90.50;;;;;;5010894;28;20053;-71
2021/08/05 05:42:55;;;;;;;5.72;3.80;;;18.70;90.40;;;;;;5027331;28;20091;-71
2021/08/05 05:45:42;;;;;;;6.00;3.90;;;18.80;90.50;;;;;;5030118;28;20390;-71
2021/08/05 05:48:28;;;;;;;6.55;4.00;;;18.80;90.50;;;;;;5014269;28;20460;-71
2021/08/05 05:51:13;;;;;;;5.40;3.75;;;18.80;90.50;;;;;;5028534;28;20653;-71
2021/08/05 05:53:59;;;;;;;5.70;3.67;;;18.90;90.40;;;;;;5026916;28;20025;-71
2021/08/05 05:56:45;;;;;;;6.07;4.05;;;18.90;90.40;;;;;;5027935;28;20112;-71
2021/08/05 05:59:31;;;;;;;5.80;3.97;;;18.90;90.40;;;;;;5012111;28;20032;-80
2021/08/05 06:02:17;;;;;;;10.57;4.80;;;19.00;90.50;;;;;;5025014;28;20030;-70
2021/08/05 06:05:03;;;;;;;5.68;4.03;;;19.00;90.50;;;;;;5028882;28;20025;-71
2021/08/05 06:07:51;;;;;;;6.15;4.22;;;19.10;90.50;;;;;;5023843;28;20037;-71
2021/08/05 06:10:37;;;;;;;6.40;3.75;;;19.10;90.50;;;;;;5018579;28;20057;-70
2021/08/05 06:13:22;;;;;;;9.25;5.00;;;19.20;90.50;;;;;;5028112;28;20025;-70
2021/08/05 06:16:08;;;;;;;9.02;4.45;;;19.20;90.40;;;;;;5027626;28;20456;-70
2021/08/05 06:18:54;;;;;;;6.40;3.88;;;19.30;90.50;;;;;;5027340;28;20033;-71
2021/08/05 06:21:40;;;;;;;6.57;4.13;;;19.30;90.60;;;;;;5032337;28;20026;-71
2021/08/05 06:24:26;;;;;;;5.93;4.30;;;19.30;90.50;;;;;;5028353;28;20033;-70
2021/08/05 06:27:12;;;;;;;6.47;4.40;;;19.40;90.50;;;;;;5031971;28;20079;-70
2021/08/05 06:30:01;;;;;;;6.47;4.50;;;19.50;90.50;;;;;;5027739;28;20038;-71
2021/08/05 06:32:50;;;;;;;8.45;5.03;;;19.50;90.40;;;;;;5027544;28;20175;-70
2021/08/05 06:35:36;;;;;;;10.32;4.70;;;19.60;90.40;;;;;;5027358;28;20033;-70
2021/08/05 06:38:22;;;;;;;7.72;4.95;;;19.60;90.50;;;;;;5026448;28;20021;-69
2021/08/05 06:41:08;;;;;;;7.57;5.15;;;19.70;90.50;;;;;;5024179;28;20032;-69
2021/08/05 06:43:53;;;;;;;8.02;5.72;;;19.80;90.40;;;;;;5024173;28;20021;-69
2021/08/05 06:46:39;;;;;;;8.15;5.00;;;19.90;90.40;;;;;;5027612;28;20083;-70
2021/08/05 06:49:25;;;;;;;9.20;4.85;;;20.00;90.30;;;;;;5026750;28;20111;-71
2021/08/05 06:52:11;;;;;;;9.90;5.68;;;20.00;90.30;;;;;;5011156;28;20055;-70
2021/08/05 06:54:57;;;;;;;7.18;4.63;;;20.10;90.30;;;;;;5027231;28;20081;-71
2021/08/05 06:57:43;;;;;;;7.65;4.65;;;20.20;90.20;;;;;;5026526;28;20049;-70
2021/08/05 07:00:28;;;;;;;9.75;4.78;;;20.30;90.50;;;;;;5026561;28;20041;-71
2021/08/05 07:03:14;;;;;;;7.28;5.07;;;20.40;90.30;;;;;;5025317;28;20034;-70
2021/08/05 07:06:00;;;;;;;8.70;4.90;;;20.50;90.30;;;;;;5023663;28;20032;-71
2021/08/05 07:08:47;;;;;;;7.57;5.10;;;20.60;90.20;;;;;;5028810;28;20412;-71
2021/08/05 07:11:33;;;;;;;10.70;5.40;;;20.70;90.20;;;;;;5026637;28;20393;-71
2021/08/05 07:14:19;;;;;;;6.40;4.30;;;20.80;90.10;;;;;;5026628;28;20354;-71
2021/08/05 07:17:05;;;;;;;6.60;4.90;;;20.80;90.10;;;;;;5023982;28;20533;-71
2021/08/05 07:19:50;;;;;;;7.15;4.60;;;21.00;90.30;;;;;;5025410;28;20018;-70
2021/08/05 07:22:38;;;;;;;6.97;4.03;;;21.10;90.10;;;;;;5009713;28;20056;-71
2021/08/05 07:25:22;;;;;;;7.70;4.63;;;21.20;90.00;;;;;;5022639;28;20182;-71
2021/08/05 07:28:06;;;;;;;7.10;5.07;;;21.30;89.50;;;;;;5024843;28;20041;-71
2021/08/05 07:30:52;;;;;;;5.70;4.78;;;21.30;88.70;;;;;;5024985;28;20271;-71
2021/08/05 07:33:36;;;;;;;7.57;4.25;;;21.40;88.50;;;;;;5022229;28;20156;-70
2021/08/05 07:36:21;;;;;;;6.28;4.07;;;21.50;88.60;;;;;;5029589;28;20095;-71
2021/08/05 07:39:10;;;;;;;6.43;4.65;;;21.60;88.30;;;;;;5026269;28;20070;-70
2021/08/05 07:41:55;;;;;;;6.35;4.40;;;21.60;87.80;;;;;;5010452;28;20670;-70
2021/08/05 07:44:39;;;;;;;5.20;4.10;;;21.60;87.70;;;;;;5026398;28;20036;-70
2021/08/05 07:47:24;;;;;;;9.30;4.10;;;21.70;89.10;;;;;;5024430;28;20076;-71
2021/08/05 07:50:10;;;;;;;6.15;3.97;;;21.80;88.10;;;;;;5026576;28;20059;-69
2021/08/05 07:52:54;;;;;;;7.57;4.47;;;21.90;87.70;;;;;;5025227;28;20041;-71
2021/08/05 07:55:38;;;;;;;5.82;4.47;;;21.90;87.10;;;;;;5024067;28;20086;-70
2021/08/05 07:58:23;;;;;;;6.28;3.95;;;21.90;87.00;;;;;;5023899;28;20048;-70
2021/08/05 08:01:07;;;;;;;5.28;3.78;;;22.00;87.30;;;;;;5021874;28;20040;-70
2021/08/05 08:03:51;;;;;;;5.50;3.40;;;22.00;86.80;;;;;;5011118;28;20515;-69
2021/08/05 08:06:35;;;;;;;5.63;3.97;;;22.10;86.50;;;;;;5022950;28;20048;-70
2021/08/05 08:09:19;;;;;;;5.72;4.20;;;22.10;86.10;;;;;;5029944;28;20102;-70
2021/08/05 08:12:03;;;;;;;6.60;3.80;;;22.20;85.60;;;;;;5031496;28;20099;-68
2021/08/05 08:14:47;;;;;;;9.07;4.22;;;22.20;85.40;;;;;;5032219;28;20056;-70
2021/08/05 08:17:31;;;;;;;5.25;4.28;;;22.30;85.70;;;;;;5010627;28;20072;-70
2021/08/05 08:20:16;;;;;;;5.70;3.75;;;22.40;85.40;;;;;;5023413;28;20128;-69
2021/08/05 08:23:00;;;;;;;5.75;4.28;;;22.50;85.30;;;;;;5024025;28;20033;-69
2021/08/05 08:25:44;;;;;;;6.53;3.90;;;22.50;85.30;;;;;;5027147;28;20440;-69
2021/08/05 08:28:28;;;;;;;6.03;4.20;;;22.60;85.40;;;;;;5021684;28;20053;-69
2021/08/05 08:31:12;;;;;;;6.65;3.97;;;22.70;84.10;;;;;;5010839;28;20540;-68
2021/08/05 08:33:56;;;;;;;5.35;3.63;;;22.70;83.90;;;;;;5026697;28;20037;-69
2021/08/05 08:36:42;;;;;;;7.13;3.70;;;22.80;84.60;;;;;;5025720;28;22136;-68
2021/08/05 08:39:26;;;;;;;5.97;4.35;;;22.80;84.10;;;;;;5010710;28;20044;-70
2021/08/05 08:42:12;;;;;;;5.80;4.30;;;22.80;82.90;;;;;;5007185;28;20044;-69
2021/08/05 08:44:57;;;;;;;6.20;3.95;;;22.80;83.30;;;;;;5026328;28;20363;-70
2021/08/05 08:47:53;;;;;;;7.03;4.27;;;22.90;83.10;;;;;;5024541;28;20719;-69
2021/08/05 08:50:39;;;;;;;6.13;4.25;;;23.00;83.10;;;;;;5023879;28;20333;-69
2021/08/05 08:53:26;;;;;;;5.57;3.72;;;23.10;81.90;;;;;;5024380;28;20044;-69
2021/08/05 08:56:10;;;;;;;8.32;3.58;;;23.10;83.00;;;;;;5025308;28;20068;-69
2021/08/05 08:58:55;;;;;;;5.82;3.50;;;23.10;82.90;;;;;;5021751;28;20087;-69
2021/08/05 09:01:40;;;;;;;5.30;4.18;;;23.20;82.50;;;;;;5027648;28;20093;-70
2021/08/05 09:04:24;;;;;;;5.47;4.25;;;23.20;81.80;;;;;;5023969;28;22504;-69
2021/08/05 09:07:08;;;;;;;7.50;3.90;;;23.20;81.50;;;;;;5009273;28;20091;-69
2021/08/05 09:09:52;;;;;;;5.43;4.18;;;23.20;81.40;;;;;;5025265;28;20052;-69
2021/08/05 09:12:36;;;;;;;5.63;4.10;;;23.20;81.30;;;;;;5022898;28;20056;-69
2021/08/05 09:15:33;;;;;;;6.68;4.35;;;23.20;81.10;;;;;;5021770;28;20040;-69
2021/08/05 09:18:39;;;;;;;6.55;4.60;;;23.30;80.50;;;;;;5023583;28;20064;-68
2021/08/05 09:21:26;;;;;;;;;;;23.30;80.60;;;;;;5024150;28;20043;-69
2021/08/05 09:24:10;;;;;;;4.78;3.47;;;23.20;80.80;;;;;;5026653;28;20779;-69
2021/08/05 09:27:02;;;;;;;4.63;3.27;;;23.20;80.40;;;;;;5030210;28;20037;-69
2021/08/05 09:29:48;;;;;;;5.40;3.38;;;23.20;80.00;;;;;;5018619;28;20299;-68
2021/08/05 09:32:34;;;;;;;5.35;2.92;;;23.30;79.80;;;;;;5028940;28;20080;-70
2021/08/05 09:35:19;;;;;;;3.75;2.83;;;23.40;79.60;;;;;;5021826;28;20084;-70
2021/08/05 09:38:20;;;;;;;5.28;3.80;;;23.50;80.70;;;;;;5020702;28;20021;-73
2021/08/05 09:41:08;;;;;;;4.82;3.33;;;23.70;79.30;;;;;;5029333;28;20029;-70
2021/08/05 09:44:01;;;;;;;4.32;3.15;;;23.70;78.90;;;;;;5027382;28;20120;-71
2021/08/05 09:47:07;;;;;;;6.30;3.38;;;23.70;77.70;;;;;;5028581;28;20072;-71
2021/08/05 09:49:55;;;;;;;5.43;3.40;;;23.70;76.40;;;;;;5028178;28;20057;-71
2021/08/05 09:52:42;;;;;;;5.47;3.25;;;23.70;77.00;;;;;;5019496;28;20030;-71
2021/08/05 09:55:28;;;;;;;3.63;2.83;;;23.80;77.80;;;;;;5025207;28;20043;-69
2021/08/05 09:58:25;;;;;;;5.03;3.05;;;24.00;77.60;;;;;;5022951;28;20074;-71
2021/08/05 10:01:12;;;;;;;4.47;2.90;;;24.10;77.30;;;;;;5027008;28;20135;-69
2021/08/05 10:03:57;;;;;;;3.92;3.00;;;24.20;75.80;;;;;;5025618;28;20034;-69
2021/08/05 10:06:57;;;;;;;4.75;3.17;;;24.20;75.80;;;;;;5024981;28;20030;-69
2021/08/05 10:09:44;;;;;;;3.40;2.70;;;24.30;76.50;;;;;;5010844;28;20084;-69
2021/08/05 10:12:33;;;;;;;4.07;2.72;;;24.50;75.90;;;;;;5023837;28;20026;-72
2021/08/05 10:15:20;;;;;;;6.05;3.00;;;24.50;75.40;;;;;;5024771;28;20116;-70
2021/08/05 10:18:06;;;;;;;4.60;2.38;;;24.60;76.80;;;;;;5023885;28;20842;-68
2021/08/05 10:20:52;;;;;;;3.40;2.42;;;24.70;74.70;;;;;;5027812;28;20072;-69
2021/08/05 10:23:41;;;;;;;3.83;2.70;;;24.80;74.90;;;;;;5025092;28;20037;-68
2021/08/05 10:26:27;;;;;;;4.95;2.30;;;24.90;73.50;;;;;;5012727;28;20049;-68
2021/08/05 10:29:15;;;;;;;3.03;2.40;;;24.90;73.50;;;;;;5023474;28;20124;-68
2021/08/05 10:32:03;;;;;;;3.88;2.50;;;24.90;72.20;;;;;;5023981;28;20037;-69
2021/08/05 10:34:51;;;;;;;3.55;2.72;;;25.00;72.00;;;;;;5025403;28;20033;-68
2021/08/05 10:37:38;;;;;;;5.00;3.00;;;25.10;71.10;;;;;;5012415;28;20033;-68
2021/08/05 10:40:26;;;;;;;3.10;2.28;;;25.10;71.20;;;;;;5027626;28;20025;-68
2021/08/05 10:43:12;;;;;;;4.72;2.60;;;25.20;71.30;;;;;;5023994;28;20049;-68
2021/08/05 10:45:59;;;;;;;3.35;2.42;;;25.30;71.30;;;;;;5025624;28;20419;-69
2021/08/05 10:48:44;;;;;;;4.10;2.38;;;25.30;69.40;;;;;;5027778;28;20402;-70
2021/08/05 10:51:35;;;;;;;4.70;2.90;;;25.30;71.90;;;;;;5026632;28;20025;-68
2021/08/05 10:54:45;;;;;;;4.15;2.45;;;25.50;70.10;;;;;;5029851;28;20516;-69
2021/08/05 10:57:31;;;;;;;5.78;3.08;;;25.70;71.50;;;;;;5024020;28;20029;-68
2021/08/05 11:00:17;;;;;;;4.40;2.70;;;25.80;70.20;;;;;;5024894;28;20034;-68
2021/08/05 11:03:04;;;;;;;4.90;2.65;;;25.90;69.20;;;;;;5029107;28;20497;-68
2021/08/05 11:05:50;;;;;;;4.03;2.70;;;25.90;69.00;;;;;;5032218;28;20026;-68
2021/08/05 11:08:35;;;;;;;5.55;2.70;;;25.90;68.80;;;;;;5040809;28;20456;-69
2021/08/05 11:11:22;;;;;;;3.95;2.80;;;25.90;68.80;;;;;;5031882;28;20120;-70
2021/08/05 11:14:07;;;;;;;3.95;2.38;;;26.00;67.70;;;;;;5030192;28;20489;-71
2021/08/05 11:17:00;;;;;;;3.03;2.40;;;26.00;68.20;;;;;;5031159;28;20029;-70
2021/08/05 11:19:46;;;;;;;2.85;2.15;;;26.20;66.50;;;;;;5033349;28;20036;-70
2021/08/05 11:22:34;;;;;;;3.60;2.80;;;26.10;65.50;;;;;;5022924;28;20433;-71
2021/08/05 11:25:00;;;;;;;5.13;2.40;;;26.20;64.50;;;;;;5022777;28;20528;-71
2021/08/05 11:27:26;;;;;;;3.67;2.50;;;26.10;64.60;;;;;;5025436;28;20030;-71
2021/08/05 11:29:51;;;;;;;2.90;2.10;;;26.10;64.50;;;;;;5026667;28;20072;-71
2021/08/05 11:32:26;;;;;;;3.22;2.40;;;26.20;64.90;;;;;;5029354;28;20025;-71
2021/08/05 11:34:59;;;;;;;5.93;3.83;;;26.20;64.30;;;;;;5031899;28;20526;-71
2021/08/05 11:37:26;;;;;;;3.20;2.67;;;26.30;64.50;;;;;;5027190;28;20096;-71
2021/08/05 11:39:54;;;;;;;3.30;2.35;;;26.30;63.70;;;;;;5029969;28;20025;-71
2021/08/05 11:42:25;;;;;;;3.15;2.33;;;26.40;61.80;;;;;;5010867;28;20363;-72
2021/08/05 11:44:56;;;;;;;4.65;3.10;;;26.40;62.40;;;;;;5026827;28;20122;-71
2021/08/05 11:47:34;;;;;;;3.47;2.33;;;26.40;62.00;;;;;;5025376;28;20634;-72
2021/08/05 11:50:03;;;;;;;3.20;2.38;;;26.40;63.30;;;;;;5026325;28;20110;-72
2021/08/05 11:52:29;;;;;;;5.53;3.13;;;26.40;62.30;;;;;;5026596;28;20570;-71
2021/08/05 11:55:01;;;;;;;4.90;2.25;;;26.40;62.10;;;;;;5023760;28;20116;-71
2021/08/05 11:57:40;;;;;;;3.17;2.35;;;26.40;61.80;;;;;;5026389;28;20236;-71
2021/08/05 12:00:13;;;;;;;3.83;2.38;;;26.50;61.20;;;;;;5027243;28;20029;-70
2021/08/05 12:02:39;;;;;;;3.50;2.63;;;26.50;62.30;;;;;;5023417;28;20033;-70
2021/08/05 12:05:05;;;;;;;4.07;2.30;;;26.50;61.20;;;;;;5021403;28;20168;-70
2021/08/05 12:07:34;;;;;;;4.40;2.38;;;26.60;61.10;;;;;;5006455;28;20556;-69
2021/08/05 12:10:28;;;;;;;5.55;3.08;;;26.60;61.10;;;;;;5010262;28;20037;-69
2021/08/05 12:12:56;;;;;;;5.75;2.35;;;26.70;60.50;;;;;;5023546;28;20084;-70
2021/08/05 12:15:29;;;;;;;3.05;2.17;;;26.70;60.10;;;;;;5026784;28;20538;-69
2021/08/05 12:17:58;;;;;;;4.35;2.83;;;26.60;60.60;;;;;;5030304;28;20064;-70
2021/08/05 12:20:33;;;;;;;3.67;2.38;;;26.60;60.00;;;;;;5026445;28;20021;-70
2021/08/05 12:23:02;;;;;;;4.25;2.63;;;26.60;60.10;;;;;;5030932;28;20037;-71
2021/08/05 12:25:29;;;;;;;3.65;1.95;;;26.50;60.10;;;;;;5027588;28;20814;-70
2021/08/05 12:27:58;;;;;;;3.20;2.30;;;26.40;60.00;;;;;;5024227;28;20029;-71
2021/08/05 12:30:35;;;;;;;3.35;2.22;;;26.30;60.00;;;;;;5022529;28;20076;-70
2021/08/05 12:33:13;;;;;;;3.30;2.50;;;26.40;60.80;;;;;;5026241;28;20033;-70
2021/08/05 12:35:40;;;;;;;3.42;2.20;;;26.40;60.10;;;;;;5024316;28;20025;-71
2021/08/05 12:38:11;;;;;;;3.03;2.10;;;26.40;60.70;;;;;;5007967;28;20022;-69
2021/08/05 12:40:41;;;;;;;3.10;2.50;;;26.40;60.00;;;;;;5008224;28;20037;-70
2021/08/05 12:43:09;;;;;;;2.72;2.17;;;26.40;59.60;;;;;;5025917;28;20017;-70
2021/08/05 12:45:38;;;;;;;3.58;2.20;;;26.30;59.80;;;;;;5026230;28;20036;-70
2021/08/05 12:48:04;;;;;;;3.58;2.40;;;26.20;59.30;;;;;;5032098;28;20378;-71
2021/08/05 12:50:36;;;;;;;3.60;2.28;;;26.30;59.90;;;;;;5030336;28;20587;-71
2021/08/05 12:53:02;;;;;;;3.92;2.13;;;26.30;59.90;;;;;;5023945;28;20021;-71
2021/08/05 12:55:28;;;;;;;3.45;2.40;;;26.30;60.40;;;;;;5025460;28;20362;-70
2021/08/05 12:57:53;;;;;;;4.78;2.50;;;26.40;60.60;;;;;;5029162;28;20041;-70
2021/08/05 13:00:30;;;;;;;4.20;2.67;;;26.40;61.10;;;;;;5027565;28;20072;-70
2021/08/05 13:02:58;;;;;;;3.47;2.35;;;26.50;61.20;;;;;;5025873;28;20029;-70
2021/08/05 13:05:24;;;;;;;6.97;3.00;;;26.60;59.90;;;;;;5032253;28;20052;-70
2021/08/05 13:07:52;;;;;;;5.60;2.78;;;26.60;59.70;;;;;;5019827;28;21948;-70
2021/08/05 13:10:20;;;;;;;5.00;2.45;;;26.60;59.10;;;;;;5020423;28;20028;-70
2021/08/05 13:12:50;;;;;;;2.97;2.50;;;26.50;59.30;;;;;;5020451;28;20552;-71
2021/08/05 13:15:33;;;;;;;2.35;1.98;;;26.60;60.80;;;;;;5016731;28;20029;-71
2021/08/05 13:18:01;;;;;;;3.00;2.30;;;26.60;59.50;;;;;;5028540;28;20030;-71
2021/08/05 13:20:28;;;;;;;5.10;2.40;;;26.60;59.50;;;;;;5007608;28;20046;-71
2021/08/05 13:22:54;;;;;;;4.20;2.35;;;26.60;59.80;;;;;;5027135;28;20037;-71
2021/08/05 13:25:21;;;;;;;3.28;2.40;;;26.60;59.60;;;;;;5012021;28;20079;-71
2021/08/05 13:28:16;;;;;;;4.00;2.45;;;26.60;59.40;;;;;;5023895;28;20112;-70
2021/08/05 13:30:44;;;;;;;2.95;2.28;;;26.40;59.60;;;;;;5025940;28;20042;-70
2021/08/05 13:33:29;;;;;;;4.45;2.33;;;26.30;59.00;;;;;;5000317;28;20049;-71
2021/08/05 13:35:57;;;;;;;4.75;2.33;;;26.30;59.30;;;;;;5012346;28;20041;-70
2021/08/05 13:38:23;;;;;;;4.78;2.50;;;26.30;59.60;;;;;;5017034;28;20136;-71
2021/08/05 13:40:49;;;;;;;6.53;2.75;;;26.20;59.10;;;;;;5012646;28;20033;-71
2021/08/05 13:43:16;;;;;;;3.00;2.30;;;26.20;59.50;;;;;;5013375;28;20253;-71
2021/08/05 13:45:43;;;;;;;3.03;2.45;;;26.20;60.40;;;;;;5011449;28;20051;-71
2021/08/05 13:48:13;;;;;;;3.80;2.15;;;26.20;59.50;;;;;;5014684;28;20041;-71
2021/08/05 13:50:39;;;;;;;3.90;2.30;;;26.20;60.00;;;;;;5013712;28;20434;-71
2021/08/05 13:53:05;;;;;;;3.60;2.15;;;26.20;59.30;;;;;;5013467;28;20064;-72
2021/08/05 13:55:36;;;;;;;3.22;2.25;;;26.20;58.80;;;;;;5012915;28;20033;-72
2021/08/05 13:58:02;;;;;;;2.97;2.35;;;26.10;58.90;;;;;;5012298;28;20029;-71
2021/08/05 14:00:28;;;;;;;4.65;2.30;;;26.10;59.50;;;;;;5010075;28;20021;-71
2021/08/05 14:02:56;;;;;;;4.05;2.55;;;26.00;59.40;;;;;;5010643;28;20438;-71
2021/08/05 14:05:22;;;;;;;5.53;2.55;;;26.00;59.40;;;;;;5015050;28;20062;-71
2021/08/05 14:07:55;;;;;;;3.38;2.30;;;25.80;59.80;;;;;;5017477;28;20057;-72
2021/08/05 14:10:21;;;;;;;3.75;2.72;;;25.80;59.80;;;;;;5001376;28;20136;-72